createdAt,value
2023-05-09T00:01:14.920Z,15.86
2023-05-09T00:03:45.275Z,15.85
2023-05-09T00:06:17.851Z,15.82
2023-05-09T00:08:47.590Z,15.81
2023-05-09T00:11:17.241Z,15.81
2023-05-09T00:13:47.298Z,15.79
2023-05-09T00:16:17.306Z,15.75
2023-05-09T00:18:47.272Z,15.75
2023-05-09T00:21:19.577Z,15.75
2023-05-09T00:23:49.768Z,15.70
2023-05-09T00:26:19.735Z,15.69
2023-05-09T00:28:50.171Z,15.65
2023-05-09T00:31:19.943Z,15.62
2023-05-09T00:33:49.640Z,15.61
2023-05-09T00:36:21.999Z,15.60
2023-05-09T00:38:52.037Z,15.57
2023-05-09T00:41:21.792Z,15.57
2023-05-09T00:43:51.498Z,15.54
2023-05-09T00:46:21.177Z,15.54
2023-05-09T00:48:52.494Z,15.52
2023-05-09T00:51:25.176Z,15.52
2023-05-09T00:53:54.911Z,15.51
2023-05-09T00:56:24.609Z,15.47
2023-05-09T00:58:55.739Z,15.47
2023-05-09T01:01:26.318Z,15.46
2023-05-09T01:03:56.158Z,15.45
2023-05-09T01:06:33.597Z,15.44
2023-05-09T01:09:07.496Z,15.42
2023-05-09T01:11:39.800Z,15.42
2023-05-09T01:14:15.482Z,15.41
2023-05-09T01:16:50.365Z,15.41
2023-05-09T01:19:42.847Z,15.38
2023-05-09T01:22:17.492Z,15.37
2023-05-09T01:25:03.214Z,15.35
2023-05-09T01:27:45.248Z,15.34
2023-05-09T01:30:19.676Z,15.30
2023-05-09T01:32:51.364Z,15.29
2023-05-09T01:35:21.620Z,15.28
2023-05-09T01:37:53.192Z,15.27
2023-05-09T01:40:23.668Z,15.25
2023-05-09T01:42:55.770Z,15.23
2023-05-09T01:45:29.133Z,15.20
2023-05-09T01:47:59.403Z,15.18
2023-05-09T01:50:30.117Z,15.14
2023-05-09T01:52:59.979Z,15.12
2023-05-09T01:55:31.785Z,15.10
2023-05-09T01:58:01.987Z,15.09
2023-05-09T02:00:35.158Z,15.07
2023-05-09T02:03:05.586Z,15.06
2023-05-09T02:05:35.832Z,15.04
2023-05-09T02:08:05.615Z,15.00
2023-05-09T02:10:36.220Z,14.96
2023-05-09T02:13:07.867Z,14.95
2023-05-09T02:15:40.474Z,14.89
2023-05-09T02:18:10.256Z,14.91
2023-05-09T02:20:39.930Z,14.89
2023-05-09T02:23:09.639Z,14.88
2023-05-09T02:25:39.730Z,14.87
2023-05-09T02:28:10.409Z,14.87
2023-05-09T02:30:45.906Z,14.84
2023-05-09T02:33:16.759Z,14.84
2023-05-09T02:35:48.441Z,14.82
2023-05-09T02:38:19.348Z,14.83
2023-05-09T02:40:52.377Z,14.84
2023-05-09T02:43:22.442Z,14.85
2023-05-09T02:45:54.798Z,14.82
2023-05-09T02:48:24.572Z,14.83
2023-05-09T02:50:54.263Z,14.82
2023-05-09T02:53:23.939Z,14.83
2023-05-09T02:55:53.993Z,14.83
2023-05-09T02:58:23.888Z,14.85
2023-05-09T03:00:56.147Z,14.86
2023-05-09T03:03:26.191Z,14.87
2023-05-09T03:05:56.136Z,14.88
2023-05-09T03:08:25.880Z,14.88
2023-05-09T03:10:55.559Z,14.88
2023-05-09T03:13:25.942Z,14.88
2023-05-09T03:15:58.450Z,14.88
2023-05-09T03:18:28.183Z,14.89
2023-05-09T03:20:58.344Z,14.87
2023-05-09T03:23:29.123Z,14.88
2023-05-09T03:25:58.804Z,14.86
2023-05-09T03:28:28.502Z,14.87
2023-05-09T03:31:04.903Z,14.88
2023-05-09T03:33:35.198Z,14.89
2023-05-09T03:36:05.225Z,14.89
2023-05-09T03:38:35.040Z,14.90
2023-05-09T03:41:04.915Z,14.91
2023-05-09T03:43:35.508Z,14.88
2023-05-09T03:46:07.791Z,14.91
2023-05-09T03:48:38.055Z,14.88
2023-05-09T03:51:08.795Z,14.88
2023-05-09T03:53:41.971Z,14.90
2023-05-09T03:56:12.513Z,14.88
2023-05-09T03:58:48.461Z,14.91
2023-05-09T04:01:21.175Z,14.88
2023-05-09T04:03:52.277Z,14.90
2023-05-09T04:06:23.363Z,14.91
2023-05-09T04:08:53.206Z,14.92
2023-05-09T04:11:23.031Z,14.93
2023-05-09T04:13:53.295Z,14.93
2023-05-09T04:16:38.050Z,14.94
2023-05-09T04:19:07.787Z,14.93
2023-05-09T04:21:38.478Z,14.94
2023-05-09T04:24:10.393Z,14.96
2023-05-09T04:26:49.326Z,14.98
2023-05-09T04:29:23.413Z,15.01
2023-05-09T04:31:59.478Z,15.01
2023-05-09T04:34:29.880Z,15.02
2023-05-09T04:37:03.502Z,15.02
2023-05-09T04:39:33.804Z,15.03
2023-05-09T04:42:11.722Z,15.02
2023-05-09T04:44:41.562Z,15.01
2023-05-09T04:47:13.919Z,15.02
2023-05-09T04:49:43.662Z,15.01
2023-05-09T04:52:13.366Z,15.03
2023-05-09T04:54:43.536Z,15.02
2023-05-09T04:57:18.302Z,15.03
2023-05-09T04:59:54.103Z,15.03
2023-05-09T05:02:26.692Z,15.04
2023-05-09T05:05:10.152Z,15.06
2023-05-09T05:07:43.390Z,15.05
2023-05-09T05:10:16.418Z,15.08
2023-05-09T05:12:50.273Z,15.06
2023-05-09T05:15:21.474Z,15.07
2023-05-09T05:17:54.189Z,15.09
2023-05-09T05:20:26.853Z,15.10
2023-05-09T05:22:57.789Z,15.13
2023-05-09T05:25:27.847Z,15.16
2023-05-09T05:27:58.651Z,15.16
2023-05-09T05:30:28.575Z,15.20
2023-05-09T05:33:02.287Z,15.23
2023-05-09T05:35:32.705Z,15.27
2023-05-09T05:38:03.196Z,15.29
2023-05-09T05:40:32.957Z,15.30
2023-05-09T05:43:06.005Z,15.31
2023-05-09T05:45:37.850Z,15.34
2023-05-09T05:48:13.002Z,15.39
2023-05-09T05:50:42.817Z,15.39
2023-05-09T05:53:13.779Z,15.45
2023-05-09T05:55:46.532Z,15.42
2023-05-09T05:58:16.530Z,15.44
2023-05-09T06:00:46.670Z,15.46
2023-05-09T06:03:19.466Z,15.52
2023-05-09T06:05:54.237Z,15.53
2023-05-09T06:08:24.048Z,15.50
2023-05-09T06:10:54.268Z,15.52
2023-05-09T06:13:24.133Z,15.59
2023-05-09T06:16:07.792Z,15.63
2023-05-09T06:18:47.925Z,15.71
2023-05-09T06:21:17.654Z,15.76
2023-05-09T06:24:02.051Z,15.81
2023-05-09T06:26:36.337Z,15.85
2023-05-09T06:29:07.788Z,15.93
2023-05-09T06:31:39.257Z,16.02
2023-05-09T06:34:11.708Z,16.05
2023-05-09T06:36:41.402Z,16.08
2023-05-09T06:39:11.072Z,16.15
2023-05-09T06:41:40.864Z,16.20
2023-05-09T06:44:10.535Z,16.22
2023-05-09T06:46:40.410Z,16.26
2023-05-09T06:49:14.002Z,16.33
2023-05-09T06:51:43.733Z,16.39
2023-05-09T06:54:13.404Z,16.44
2023-05-09T06:56:46.050Z,16.46
2023-05-09T06:59:16.685Z,16.52
2023-05-09T07:01:46.417Z,16.57
2023-05-09T07:04:18.712Z,16.66
2023-05-09T07:06:48.440Z,16.71
2023-05-09T07:09:20.606Z,16.77
2023-05-09T07:11:50.414Z,16.80
2023-05-09T07:14:20.641Z,16.79
2023-05-09T07:16:50.415Z,16.85
2023-05-09T07:19:22.723Z,16.89
2023-05-09T07:21:52.555Z,16.90
2023-05-09T07:24:22.210Z,16.88
2023-05-09T07:26:51.890Z,16.93
2023-05-09T07:29:26.506Z,16.86
2023-05-09T07:31:56.407Z,16.98
2023-05-09T07:34:28.782Z,17.07
2023-05-09T07:36:58.827Z,17.07
2023-05-09T07:39:28.898Z,17.12
2023-05-09T07:41:58.591Z,17.09
2023-05-09T07:44:28.334Z,17.18
2023-05-09T07:46:59.346Z,17.22
2023-05-09T07:49:31.676Z,17.36
2023-05-09T07:52:01.397Z,17.54
2023-05-09T07:54:31.260Z,17.62
2023-05-09T07:57:01.003Z,17.73
2023-05-09T07:59:30.701Z,17.80
2023-05-09T08:02:00.870Z,17.91
2023-05-09T08:04:33.325Z,17.89
2023-05-09T08:07:04.243Z,17.92
2023-05-09T08:09:34.044Z,17.93
2023-05-09T08:12:04.004Z,18.03
2023-05-09T08:14:33.719Z,18.03
2023-05-09T08:17:03.483Z,18.15
2023-05-09T08:19:35.801Z,18.38
2023-05-09T08:22:05.737Z,18.28
2023-05-09T08:24:35.469Z,18.30
2023-05-09T08:27:05.484Z,18.32
2023-05-09T08:29:35.176Z,18.47
2023-05-09T08:32:04.867Z,18.55
2023-05-09T08:34:37.182Z,18.49
2023-05-09T08:37:07.845Z,18.80
2023-05-09T08:39:37.586Z,19.03
2023-05-09T08:42:07.445Z,19.14
2023-05-09T08:44:37.378Z,19.01
2023-05-09T08:47:07.719Z,18.93
2023-05-09T08:49:40.144Z,19.00
2023-05-09T08:52:11.575Z,19.11
2023-05-09T08:54:41.554Z,19.28
2023-05-09T08:57:11.493Z,19.34
2023-05-09T08:59:43.428Z,19.58
2023-05-09T09:02:15.885Z,19.48
2023-05-09T09:04:48.489Z,19.51
2023-05-09T09:07:18.746Z,19.49
2023-05-09T09:09:50.293Z,19.51
2023-05-09T09:12:20.738Z,19.40
2023-05-09T09:14:52.517Z,19.43
2023-05-09T09:17:28.239Z,19.54
2023-05-09T09:20:02.269Z,19.51
2023-05-09T09:22:35.848Z,19.45
2023-05-09T09:25:07.454Z,19.52
2023-05-09T09:27:37.289Z,19.44
2023-05-09T09:30:10.965Z,19.44
2023-05-09T09:32:42.138Z,19.44
2023-05-09T09:35:15.371Z,19.48
2023-05-09T09:37:45.560Z,19.69
2023-05-09T09:40:16.598Z,19.74
2023-05-09T09:42:47.406Z,19.87
2023-05-09T09:45:19.042Z,20.08
2023-05-09T09:47:50.184Z,20.00
2023-05-09T09:50:24.924Z,20.09
2023-05-09T09:52:56.038Z,20.03
2023-05-09T09:55:27.416Z,19.97
2023-05-09T09:57:58.079Z,19.93
2023-05-09T10:00:28.994Z,19.91
2023-05-09T10:03:00.082Z,19.86
2023-05-09T10:05:34.563Z,19.91
2023-05-09T10:08:07.701Z,19.79
2023-05-09T10:10:38.845Z,19.94
2023-05-09T10:13:10.455Z,20.03
2023-05-09T10:15:52.147Z,19.98
2023-05-09T10:18:28.165Z,19.84
2023-05-09T10:21:04.221Z,19.90
2023-05-09T10:23:35.919Z,19.94
2023-05-09T10:26:11.755Z,19.96
2023-05-09T10:28:43.273Z,19.96
2023-05-09T10:31:18.022Z,20.01
2023-05-09T10:33:50.321Z,20.00
2023-05-09T10:36:24.064Z,20.04
2023-05-09T10:38:54.773Z,20.09
2023-05-09T10:41:25.809Z,20.17
2023-05-09T10:43:55.813Z,20.17
2023-05-09T10:46:27.360Z,20.13
2023-05-09T10:48:57.178Z,20.16
2023-05-09T10:51:29.937Z,20.31
2023-05-09T10:53:59.860Z,20.43
2023-05-09T10:56:32.478Z,20.31
2023-05-09T10:59:02.798Z,20.35
2023-05-09T11:01:35.481Z,20.42
2023-05-09T11:04:12.895Z,20.46
2023-05-09T11:06:52.330Z,20.46
2023-05-09T11:09:33.397Z,20.42
2023-05-09T11:12:13.893Z,20.31
2023-05-09T11:14:45.219Z,20.31
2023-05-09T11:17:16.262Z,20.39
2023-05-09T11:20:05.848Z,20.48
2023-05-09T11:22:44.562Z,20.58
2023-05-09T11:25:15.465Z,20.71
2023-05-09T11:27:48.040Z,20.69
2023-05-09T11:30:19.692Z,20.72
2023-05-09T11:32:50.590Z,20.59
2023-05-09T11:35:21.718Z,20.70
2023-05-09T11:37:58.192Z,20.79
2023-05-09T11:40:27.924Z,20.90
2023-05-09T11:42:58.954Z,20.81
2023-05-09T11:45:30.637Z,20.81
2023-05-09T11:48:00.771Z,20.91
2023-05-09T11:50:30.565Z,20.94
2023-05-09T11:53:02.898Z,20.84
2023-05-09T11:55:32.976Z,21.00
2023-05-09T11:58:02.730Z,21.02
2023-05-09T12:00:32.394Z,20.98
2023-05-09T12:03:03.369Z,21.05
2023-05-09T12:05:33.916Z,20.96
2023-05-09T12:08:09.718Z,20.98
2023-05-09T12:10:41.670Z,20.91
2023-05-09T12:13:13.374Z,20.89
2023-05-09T12:15:45.956Z,20.96
2023-05-09T12:18:17.204Z,21.10
2023-05-09T12:20:48.511Z,21.09
2023-05-09T12:23:21.740Z,21.18
2023-05-09T12:25:51.702Z,21.15
2023-05-09T12:28:21.557Z,21.24
2023-05-09T12:30:51.388Z,21.13
2023-05-09T12:33:21.400Z,21.24
2023-05-09T12:35:52.889Z,21.22
2023-05-09T12:38:27.165Z,21.23
2023-05-09T12:41:03.949Z,21.24
2023-05-09T12:43:35.002Z,21.32
2023-05-09T12:46:05.677Z,21.40
2023-05-09T12:48:38.590Z,21.39
2023-05-09T12:51:08.807Z,21.40
2023-05-09T12:53:43.768Z,21.27
2023-05-09T12:56:18.335Z,21.30
2023-05-09T12:58:52.753Z,21.35
2023-05-09T13:01:23.199Z,21.33
2023-05-09T13:04:03.020Z,21.39
2023-05-09T13:06:33.050Z,21.47
2023-05-09T13:09:09.279Z,21.61
2023-05-09T13:11:39.497Z,21.67
2023-05-09T13:14:09.197Z,21.56
2023-05-09T13:16:38.885Z,21.44
2023-05-09T13:19:08.578Z,21.35
2023-05-09T13:21:38.490Z,21.31
2023-05-09T13:24:11.212Z,21.25
2023-05-09T13:26:40.917Z,21.23
2023-05-09T13:29:10.701Z,21.27
2023-05-09T13:31:40.541Z,21.33
2023-05-09T13:34:10.207Z,21.32
2023-05-09T13:36:39.911Z,21.23
2023-05-09T13:39:12.237Z,21.16
2023-05-09T13:41:41.993Z,21.15
2023-05-09T13:44:11.746Z,21.05
2023-05-09T13:46:41.596Z,21.02
2023-05-09T13:49:11.893Z,20.95
2023-05-09T13:51:41.970Z,21.02
2023-05-09T13:54:17.387Z,21.08
2023-05-09T13:56:47.116Z,21.09
2023-05-09T13:59:16.735Z,21.05
2023-05-09T14:01:46.519Z,20.99
2023-05-09T14:04:16.326Z,20.92
2023-05-09T14:06:48.380Z,20.94
2023-05-09T14:09:22.376Z,20.84
2023-05-09T14:11:52.661Z,20.79
2023-05-09T14:14:23.051Z,20.63
2023-05-09T14:16:54.083Z,20.37
2023-05-09T14:19:23.820Z,20.26
2023-05-09T14:21:53.450Z,20.21
2023-05-09T14:24:26.020Z,20.10
2023-05-09T14:26:55.873Z,20.07
2023-05-09T14:29:25.814Z,20.03
2023-05-09T14:31:55.664Z,20.06
2023-05-09T14:34:25.422Z,20.12
2023-05-09T14:36:55.142Z,20.00
2023-05-09T14:39:27.624Z,19.96
2023-05-09T14:41:57.266Z,19.98
2023-05-09T14:44:27.213Z,20.00
2023-05-09T14:46:56.956Z,19.97
2023-05-09T14:49:26.801Z,19.98
2023-05-09T14:51:56.489Z,19.88
2023-05-09T14:54:31.789Z,19.80
2023-05-09T14:57:04.638Z,19.75
2023-05-09T14:59:36.689Z,19.69
2023-05-09T15:02:07.186Z,19.55
2023-05-09T15:04:36.927Z,19.53
2023-05-09T15:07:06.770Z,19.52
2023-05-09T15:09:39.156Z,19.45
2023-05-09T15:12:09.302Z,19.40
2023-05-09T15:14:39.634Z,19.36
2023-05-09T15:17:09.533Z,19.24
2023-05-09T15:19:39.788Z,19.19
2023-05-09T15:22:10.797Z,19.05
2023-05-09T15:24:44.374Z,18.86
2023-05-09T15:27:14.527Z,18.73
2023-05-09T15:29:44.746Z,18.68
2023-05-09T15:32:15.249Z,18.60
2023-05-09T15:34:48.677Z,18.60
2023-05-09T15:37:18.737Z,18.51
2023-05-09T15:39:51.261Z,18.41
2023-05-09T15:42:21.491Z,18.32
2023-05-09T15:44:51.217Z,18.29
2023-05-09T15:47:21.035Z,18.21
2023-05-09T15:49:50.966Z,18.09
2023-05-09T15:52:20.670Z,18.06
2023-05-09T15:54:53.144Z,18.03
2023-05-09T15:57:22.929Z,18.02
2023-05-09T15:59:54.524Z,18.04
2023-05-09T16:02:24.898Z,18.08
2023-05-09T16:04:54.743Z,18.11
2023-05-09T16:07:24.488Z,18.07
2023-05-09T16:09:56.869Z,18.06
2023-05-09T16:12:27.022Z,18.06
2023-05-09T16:14:56.868Z,18.04
2023-05-09T16:17:26.631Z,18.01
2023-05-09T16:19:58.596Z,18.02
2023-05-09T16:22:28.611Z,18.00
2023-05-09T16:25:01.121Z,17.97
2023-05-09T16:27:31.054Z,18.00
2023-05-09T16:30:00.903Z,17.97
2023-05-09T16:32:30.650Z,17.98
2023-05-09T16:35:00.320Z,17.97
2023-05-09T16:37:30.047Z,17.98
2023-05-09T16:40:02.612Z,17.98
2023-05-09T16:42:32.686Z,17.96
2023-05-09T16:45:02.532Z,17.94
2023-05-09T16:47:32.614Z,17.94
2023-05-09T16:50:02.528Z,17.91
2023-05-09T16:52:32.627Z,17.89
2023-05-09T16:55:04.948Z,17.92
2023-05-09T16:57:34.637Z,17.88
2023-05-09T17:00:04.389Z,17.91
2023-05-09T17:02:34.137Z,17.86
2023-05-09T17:05:04.374Z,17.84
2023-05-09T17:07:34.128Z,17.83
2023-05-09T17:10:06.522Z,17.81
2023-05-09T17:12:36.302Z,17.79
2023-05-09T17:15:06.188Z,17.79
2023-05-09T17:17:35.950Z,17.77
2023-05-09T17:20:05.801Z,17.75
2023-05-09T17:22:37.117Z,17.72
2023-05-09T17:25:10.450Z,17.71
2023-05-09T17:27:41.743Z,17.69
2023-05-09T17:30:12.771Z,17.68
2023-05-09T17:32:43.183Z,17.59
2023-05-09T17:35:13.920Z,17.55
2023-05-09T17:37:43.630Z,17.54
2023-05-09T17:40:16.524Z,17.53
2023-05-09T17:42:46.390Z,17.53
2023-05-09T17:45:16.056Z,17.49
2023-05-09T17:47:45.768Z,17.45
2023-05-09T17:50:17.326Z,17.40
2023-05-09T17:52:49.538Z,17.30
2023-05-09T17:55:21.912Z,17.08
2023-05-09T17:57:51.638Z,16.97
2023-05-09T18:00:22.297Z,16.86
2023-05-09T18:02:52.355Z,16.74
2023-05-09T18:05:23.719Z,16.69
2023-05-09T18:07:59.526Z,16.63
2023-05-09T18:10:32.624Z,16.59
2023-05-09T18:13:03.632Z,16.59
2023-05-09T18:15:40.131Z,16.56
2023-05-09T18:18:14.281Z,16.54
2023-05-09T18:20:46.332Z,16.55
2023-05-09T18:23:17.359Z,16.54
2023-05-09T18:25:49.952Z,16.53
2023-05-09T18:28:24.652Z,16.47
2023-05-09T18:30:54.898Z,16.47
2023-05-09T18:33:25.385Z,16.45
2023-05-09T18:35:55.528Z,16.46
2023-05-09T18:38:25.372Z,16.43
2023-05-09T18:40:57.851Z,16.35
2023-05-09T18:43:29.095Z,16.28
2023-05-09T18:45:58.846Z,16.17
2023-05-09T18:48:28.594Z,16.07
2023-05-09T18:50:58.595Z,16.04
2023-05-09T18:53:29.027Z,15.92
2023-05-09T18:56:01.490Z,15.88
2023-05-09T18:58:31.338Z,15.84
2023-05-09T19:01:01.148Z,15.81
2023-05-09T19:03:31.051Z,15.78
2023-05-09T19:06:01.579Z,15.76
2023-05-09T19:08:31.567Z,15.69
2023-05-09T19:11:03.790Z,15.62
2023-05-09T19:13:37.178Z,15.57
2023-05-09T19:16:08.211Z,15.53
2023-05-09T19:18:38.154Z,15.50
2023-05-09T19:21:07.830Z,15.50
2023-05-09T19:23:37.507Z,15.51
2023-05-09T19:26:09.958Z,15.47
2023-05-09T19:28:39.874Z,15.48
2023-05-09T19:31:12.278Z,15.49
2023-05-09T19:33:42.377Z,15.52
2023-05-09T19:36:12.153Z,15.51
2023-05-09T19:38:42.129Z,15.52
2023-05-09T19:41:14.658Z,15.53
2023-05-09T19:43:44.351Z,15.53
2023-05-09T19:46:14.141Z,15.54
2023-05-09T19:48:43.854Z,15.53
2023-05-09T19:51:15.587Z,15.54
2023-05-09T19:53:46.971Z,15.53
2023-05-09T19:56:19.396Z,15.51
2023-05-09T19:58:49.919Z,15.50
2023-05-09T20:01:20.042Z,15.48
2023-05-09T20:03:52.241Z,15.49
2023-05-09T20:06:22.158Z,15.47
2023-05-09T20:08:52.287Z,15.47
2023-05-09T20:11:24.615Z,15.46
2023-05-09T20:13:54.325Z,15.42
2023-05-09T20:16:24.008Z,15.43
2023-05-09T20:18:55.190Z,15.43
2023-05-09T20:21:27.180Z,15.40
2023-05-09T20:23:56.984Z,15.36
2023-05-09T20:26:29.782Z,15.36
2023-05-09T20:29:01.544Z,15.32
2023-05-09T20:31:31.817Z,15.33
2023-05-09T20:34:01.815Z,15.29
2023-05-09T20:36:31.879Z,15.29
2023-05-09T20:39:01.483Z,15.26
2023-05-09T20:41:34.961Z,15.24
2023-05-09T20:44:05.576Z,15.20
2023-05-09T20:46:35.469Z,15.14
2023-05-09T20:49:05.595Z,15.05
2023-05-09T20:51:35.261Z,14.89
2023-05-09T20:54:04.937Z,14.81
2023-05-09T20:56:37.239Z,14.70
2023-05-09T20:59:06.978Z,14.57
2023-05-09T21:01:37.443Z,14.48
2023-05-09T21:04:08.508Z,14.40
2023-05-09T21:06:38.256Z,14.34
2023-05-09T21:09:09.158Z,14.31
2023-05-09T21:11:41.459Z,14.32
2023-05-09T21:14:11.633Z,14.30
2023-05-09T21:16:43.950Z,14.26
2023-05-09T21:19:13.731Z,14.23
2023-05-09T21:21:43.364Z,14.20
2023-05-09T21:24:13.385Z,14.17
2023-05-09T21:26:45.624Z,14.12
2023-05-09T21:29:15.516Z,14.09
2023-05-09T21:31:45.307Z,14.09
2023-05-09T21:34:15.096Z,14.06
2023-05-09T21:36:44.801Z,14.03
2023-05-09T21:39:14.476Z,14.05
2023-05-09T21:41:46.799Z,14.03
2023-05-09T21:44:16.561Z,14.02
2023-05-09T21:46:46.547Z,13.98
2023-05-09T21:49:17.885Z,13.94
2023-05-09T21:51:47.630Z,13.90
2023-05-09T21:54:17.347Z,13.88
2023-05-09T21:56:49.702Z,13.88
2023-05-09T21:59:20.972Z,13.86
2023-05-09T22:01:51.111Z,13.83
2023-05-09T22:04:20.877Z,13.80
2023-05-09T22:06:50.491Z,13.81
2023-05-09T22:09:20.249Z,13.78
2023-05-09T22:11:52.945Z,13.77
2023-05-09T22:14:22.755Z,13.76
2023-05-09T22:16:52.432Z,13.76
2023-05-09T22:19:22.173Z,13.73
2023-05-09T22:21:51.840Z,13.66
2023-05-09T22:24:21.491Z,13.67
2023-05-09T22:26:53.753Z,13.59
2023-05-09T22:29:23.494Z,13.58
2023-05-09T22:31:54.713Z,13.60
2023-05-09T22:34:24.497Z,13.57
2023-05-09T22:36:55.116Z,13.54
2023-05-09T22:39:25.041Z,13.52
2023-05-09T22:41:57.317Z,13.54
2023-05-09T22:44:27.117Z,13.54
2023-05-09T22:46:56.844Z,13.50
2023-05-09T22:49:26.835Z,13.49
2023-05-09T22:51:56.547Z,13.44
2023-05-09T22:54:26.895Z,13.43
2023-05-09T22:56:59.404Z,13.41
2023-05-09T22:59:29.308Z,13.42
2023-05-09T23:01:58.948Z,13.40
2023-05-09T23:04:28.754Z,13.41
2023-05-09T23:06:58.588Z,13.40
2023-05-09T23:09:28.475Z,13.42
2023-05-09T23:12:01.313Z,13.39
2023-05-09T23:14:31.562Z,13.41
2023-05-09T23:17:01.256Z,13.39
2023-05-09T23:19:30.939Z,13.42
2023-05-09T23:22:01.161Z,13.39
2023-05-09T23:24:30.833Z,13.40
2023-05-09T23:27:03.870Z,13.42
2023-05-09T23:29:33.649Z,13.40
2023-05-09T23:32:03.500Z,13.38
2023-05-09T23:34:33.939Z,13.33
2023-05-09T23:37:03.597Z,13.35
2023-05-09T23:39:34.033Z,13.32
2023-05-09T23:42:06.945Z,13.33
2023-05-09T23:44:36.722Z,13.33
2023-05-09T23:47:06.985Z,13.34
2023-05-09T23:49:36.714Z,13.35
2023-05-09T23:52:06.551Z,13.31
2023-05-09T23:54:36.168Z,13.27
2023-05-09T23:57:08.739Z,13.23
2023-05-09T23:59:38.404Z,13.25
